createdAt,value
2019-05-29T00:00:10.224Z,99.90
2019-05-29T00:02:39.023Z,99.90
2019-05-29T00:05:08.121Z,99.90
2019-05-29T00:07:37.073Z,99.90
2019-05-29T00:10:06.540Z,99.90
2019-05-29T00:12:35.259Z,99.90
2019-05-29T00:15:04.302Z,99.90
2019-05-29T00:17:33.035Z,99.90
2019-05-29T00:20:01.756Z,99.90
2019-05-29T00:22:30.499Z,99.90
2019-05-29T00:24:59.245Z,99.90
2019-05-29T00:27:28.003Z,99.90
2019-05-29T00:29:56.765Z,99.90
2019-05-29T00:32:25.479Z,99.90
2019-05-29T00:34:54.316Z,99.90
2019-05-29T00:37:23.035Z,99.90
2019-05-29T00:39:51.870Z,99.90
2019-05-29T00:42:20.588Z,99.90
2019-05-29T00:44:49.283Z,99.90
2019-05-29T00:47:18.072Z,99.90
2019-05-29T00:49:48.083Z,99.90
2019-05-29T00:52:16.883Z,99.90
2019-05-29T00:54:45.591Z,99.90
2019-05-29T00:57:15.323Z,99.90
2019-05-29T00:59:44.188Z,99.90
2019-05-29T01:02:13.728Z,99.90
2019-05-29T01:04:42.575Z,99.90
2019-05-29T01:07:12.287Z,99.90
2019-05-29T01:09:41.103Z,99.90
2019-05-29T01:12:10.809Z,99.90
2019-05-29T01:14:49.708Z,99.90
2019-05-29T01:17:12.053Z,99.90
2019-05-29T01:19:41.611Z,99.90
2019-05-29T01:22:10.612Z,99.90
2019-05-29T01:24:39.390Z,99.90
2019-05-29T01:27:08.198Z,99.90
2019-05-29T01:29:36.904Z,99.90
2019-05-29T01:32:05.736Z,99.90
2019-05-29T01:34:34.547Z,99.90
2019-05-29T01:37:03.343Z,99.90
2019-05-29T01:39:32.241Z,99.90
2019-05-29T01:42:00.967Z,99.90
2019-05-29T01:44:29.692Z,99.90
2019-05-29T01:46:58.454Z,99.90
2019-05-29T01:49:28.040Z,99.90
2019-05-29T01:51:56.907Z,99.90
2019-05-29T01:54:25.686Z,99.90
2019-05-29T01:56:54.469Z,99.90
2019-05-29T01:59:23.964Z,99.90
2019-05-29T02:01:52.839Z,99.90
2019-05-29T02:04:21.991Z,99.90
2019-05-29T02:06:50.711Z,99.90
2019-05-29T02:09:20.237Z,99.90
2019-05-29T02:11:49.075Z,99.90
2019-05-29T02:14:18.439Z,99.90
2019-05-29T02:16:47.234Z,99.90
2019-05-29T02:19:15.982Z,99.90
2019-05-29T02:21:44.766Z,99.90
2019-05-29T02:24:13.583Z,99.90
2019-05-29T02:26:42.319Z,99.90
2019-05-29T02:29:11.041Z,99.90
2019-05-29T02:31:39.867Z,99.90
2019-05-29T02:34:08.937Z,99.90
2019-05-29T02:36:37.693Z,99.90
2019-05-29T02:39:08.836Z,99.90
2019-05-29T02:41:37.622Z,99.90
2019-05-29T02:44:06.446Z,99.90
2019-05-29T02:46:35.293Z,99.90
2019-05-29T02:49:04.107Z,99.90
2019-05-29T02:51:32.859Z,99.90
2019-05-29T02:54:01.726Z,99.90
2019-05-29T02:56:31.317Z,99.90
2019-05-29T02:59:00.207Z,99.90
2019-05-29T03:01:29.781Z,99.90
2019-05-29T03:03:58.721Z,99.90
2019-05-29T03:06:30.143Z,99.90
2019-05-29T03:08:59.406Z,99.90
2019-05-29T03:11:29.276Z,99.90
2019-05-29T03:13:58.844Z,99.90
2019-05-29T03:16:28.791Z,99.90
2019-05-29T03:18:58.088Z,99.90
2019-05-29T03:21:28.395Z,99.90
2019-05-29T03:23:57.412Z,99.90
2019-05-29T03:26:28.545Z,99.90
2019-05-29T03:28:56.698Z,99.90
2019-05-29T03:31:28.422Z,99.90
2019-05-29T03:33:55.978Z,99.90
2019-05-29T03:36:27.660Z,99.90
2019-05-29T03:38:55.294Z,99.90
2019-05-29T03:41:24.084Z,99.90
2019-05-29T03:43:52.862Z,99.90
2019-05-29T03:46:31.269Z,99.90
2019-05-29T03:48:52.035Z,99.90
2019-05-29T03:51:20.851Z,99.90
2019-05-29T03:53:49.591Z,99.90
2019-05-29T03:56:18.467Z,99.90
2019-05-29T03:58:47.194Z,99.90
2019-05-29T04:01:16.037Z,99.90
2019-05-29T04:03:44.863Z,99.90
2019-05-29T04:06:13.599Z,99.90
2019-05-29T04:08:44.392Z,99.90
2019-05-29T04:11:13.223Z,99.90
2019-05-29T04:13:42.196Z,99.90
2019-05-29T04:16:11.476Z,99.90
2019-05-29T04:18:41.287Z,99.90
2019-05-29T04:21:11.679Z,99.90
2019-05-29T04:23:42.342Z,99.90
2019-05-29T04:26:13.741Z,99.90
2019-05-29T04:28:42.823Z,99.90
2019-05-29T04:31:11.654Z,99.90
2019-05-29T04:33:40.402Z,99.90
2019-05-29T04:36:09.131Z,99.90
2019-05-29T04:38:40.194Z,99.90
2019-05-29T04:41:08.746Z,99.90
2019-05-29T04:43:38.015Z,99.90
2019-05-29T04:46:07.919Z,99.90
2019-05-29T04:48:39.583Z,99.90
2019-05-29T04:51:07.267Z,99.90
2019-05-29T04:53:37.775Z,99.90
2019-05-29T04:56:06.572Z,99.90
2019-05-29T04:58:36.942Z,99.90
2019-05-29T05:01:05.719Z,99.90
2019-05-29T05:03:35.196Z,99.90
2019-05-29T05:06:04.199Z,99.90
2019-05-29T05:08:33.370Z,99.90
2019-05-29T05:11:02.475Z,99.90
2019-05-29T05:13:31.534Z,99.90
2019-05-29T05:16:02.143Z,99.90
2019-05-29T05:18:31.743Z,99.90
2019-05-29T05:21:00.681Z,99.90
2019-05-29T05:23:30.059Z,99.90
2019-05-29T05:25:58.910Z,99.90
2019-05-29T05:28:27.702Z,99.90
2019-05-29T05:30:56.521Z,99.90
2019-05-29T05:33:25.250Z,99.90
2019-05-29T05:35:54.044Z,99.90
2019-05-29T05:38:23.086Z,99.90
2019-05-29T05:40:51.953Z,99.90
2019-05-29T05:43:24.183Z,99.90
2019-05-29T05:45:51.539Z,99.90
2019-05-29T05:48:20.262Z,99.90
2019-05-29T05:50:49.004Z,99.90
2019-05-29T05:53:18.060Z,99.90
2019-05-29T05:55:46.866Z,99.90
2019-05-29T05:58:15.607Z,99.90
2019-05-29T06:00:45.071Z,99.90
2019-05-29T06:03:14.215Z,99.90
2019-05-29T06:05:43.066Z,99.90
2019-05-29T06:08:11.904Z,99.90
2019-05-29T06:10:40.911Z,99.90
2019-05-29T06:13:09.705Z,99.90
2019-05-29T06:15:38.509Z,99.90
2019-05-29T06:18:20.530Z,99.90
2019-05-29T06:20:39.025Z,99.90
2019-05-29T06:23:07.976Z,99.90
2019-05-29T06:25:39.101Z,99.90
2019-05-29T06:28:08.225Z,99.90
2019-05-29T06:30:39.293Z,99.90
2019-05-29T06:33:07.627Z,99.90
2019-05-29T06:35:37.581Z,99.90
2019-05-29T06:38:06.932Z,99.90
2019-05-29T06:40:38.293Z,99.90
2019-05-29T06:43:11.930Z,99.90
2019-05-29T06:45:40.107Z,99.90
2019-05-29T06:48:09.372Z,99.90
2019-05-29T06:50:39.378Z,99.90
2019-05-29T06:53:08.310Z,99.90
2019-05-29T06:55:37.888Z,99.90
2019-05-29T06:58:06.720Z,99.90
2019-05-29T07:00:37.364Z,99.90
2019-05-29T07:03:06.525Z,99.90
2019-05-29T07:05:35.603Z,99.90
2019-05-29T07:08:18.737Z,99.90
2019-05-29T07:10:36.369Z,99.90
2019-05-29T07:13:05.327Z,99.90
2019-05-29T07:15:34.175Z,99.90
2019-05-29T07:18:02.979Z,99.90
2019-05-29T07:20:31.787Z,99.90
2019-05-29T07:23:00.492Z,99.90
2019-05-29T07:25:29.236Z,99.90
2019-05-29T07:27:57.980Z,99.90
2019-05-29T07:30:26.743Z,99.90
2019-05-29T07:32:58.106Z,99.90
2019-05-29T07:35:26.234Z,99.90
2019-05-29T07:37:55.650Z,99.90
2019-05-29T07:40:24.582Z,99.90
2019-05-29T07:42:56.566Z,99.90
2019-05-29T07:45:23.867Z,99.90
2019-05-29T07:47:52.618Z,99.90
2019-05-29T07:50:23.063Z,99.90
2019-05-29T07:52:52.150Z,99.90
2019-05-29T07:55:23.676Z,99.90
2019-05-29T07:57:51.375Z,99.90
2019-05-29T08:00:20.407Z,99.90
2019-05-29T08:02:49.519Z,99.90
2019-05-29T08:05:18.369Z,99.90
2019-05-29T08:07:47.597Z,99.90
2019-05-29T08:10:17.843Z,99.90
2019-05-29T08:12:51.148Z,99.90
2019-05-29T08:15:17.200Z,99.90
2019-05-29T08:17:46.248Z,99.90
2019-05-29T08:20:15.311Z,99.90
2019-05-29T08:22:44.442Z,99.90
2019-05-29T08:25:13.635Z,99.90
2019-05-29T08:27:42.678Z,99.90
2019-05-29T08:30:11.955Z,99.90
2019-05-29T08:32:40.861Z,99.90
2019-05-29T08:35:10.527Z,99.90
2019-05-29T08:37:39.299Z,99.90
2019-05-29T08:40:08.516Z,99.90
2019-05-29T08:42:37.247Z,99.90
2019-05-29T08:45:06.226Z,99.90
2019-05-29T08:47:34.958Z,99.90
2019-05-29T08:50:18.097Z,99.90
2019-05-29T08:52:37.621Z,99.90
2019-05-29T08:55:06.906Z,99.90
2019-05-29T08:57:35.663Z,99.90
2019-05-29T09:00:08.170Z,99.90
2019-05-29T09:02:36.895Z,99.60
2019-05-29T09:05:06.211Z,99.90
2019-05-29T09:07:34.984Z,99.90
2019-05-29T09:10:04.571Z,99.50
2019-05-29T09:12:33.359Z,98.60
2019-05-29T09:15:02.314Z,99.90
2019-05-29T09:17:34.344Z,98.90
2019-05-29T09:20:01.670Z,96.50
2019-05-29T09:22:30.542Z,97.20
2019-05-29T09:24:59.266Z,99.90
2019-05-29T09:27:28.074Z,99.90
2019-05-29T09:29:56.820Z,95.40
2019-05-29T09:32:48.438Z,95.70
2019-05-29T09:34:56.107Z,94.50
2019-05-29T09:37:24.851Z,96.30
2019-05-29T09:39:53.740Z,97.40
2019-05-29T09:42:23.687Z,94.80
2019-05-29T09:44:52.474Z,94.20
2019-05-29T09:47:22.208Z,97.60
2019-05-29T09:49:51.011Z,96.00
2019-05-29T09:52:20.036Z,94.70
2019-05-29T09:54:49.127Z,96.30
2019-05-29T09:57:18.072Z,94.80
2019-05-29T09:59:46.849Z,96.00
2019-05-29T10:02:15.724Z,96.20
2019-05-29T10:04:44.530Z,94.20
2019-05-29T10:07:13.257Z,93.50
2019-05-29T10:09:42.726Z,92.20
2019-05-29T10:12:11.490Z,93.00
2019-05-29T10:14:40.287Z,92.80
2019-05-29T10:17:12.696Z,94.10
2019-05-29T10:19:39.796Z,95.40
2019-05-29T10:22:08.704Z,95.30
2019-05-29T10:24:37.561Z,96.70
2019-05-29T10:27:06.820Z,92.10
2019-05-29T10:29:35.640Z,95.40
2019-05-29T10:32:04.453Z,91.50
2019-05-29T10:34:33.183Z,99.20
2019-05-29T10:37:01.910Z,90.90
2019-05-29T10:39:31.740Z,89.50
2019-05-29T10:42:00.475Z,90.40
2019-05-29T10:44:29.343Z,91.70
2019-05-29T10:46:58.145Z,91.00
2019-05-29T10:49:26.932Z,86.90
2019-05-29T10:52:12.212Z,86.40
2019-05-29T10:54:26.219Z,89.20
2019-05-29T10:56:55.097Z,94.10
2019-05-29T10:59:23.923Z,90.50
2019-05-29T11:01:53.777Z,90.20
2019-05-29T11:04:22.649Z,95.80
2019-05-29T11:06:52.548Z,90.80
2019-05-29T11:09:21.892Z,96.30
2019-05-29T11:11:50.783Z,92.90
2019-05-29T11:14:19.592Z,88.60
2019-05-29T11:16:49.025Z,92.80
2019-05-29T11:19:17.874Z,91.20
2019-05-29T11:21:48.152Z,93.10
2019-05-29T11:24:17.338Z,96.00
2019-05-29T11:26:46.195Z,93.90
2019-05-29T11:29:15.127Z,95.70
2019-05-29T11:31:44.992Z,93.40
2019-05-29T11:34:13.694Z,90.00
2019-05-29T11:36:42.426Z,90.00
2019-05-29T11:39:11.716Z,91.60
2019-05-29T11:41:40.567Z,94.00
2019-05-29T11:44:09.386Z,96.20
2019-05-29T11:46:38.181Z,97.60
2019-05-29T11:49:08.035Z,92.60
2019-05-29T11:51:36.748Z,91.20
2019-05-29T11:54:05.733Z,92.00
2019-05-29T11:56:34.529Z,91.30
2019-05-29T11:59:03.330Z,93.30
2019-05-29T12:01:49.174Z,95.40
2019-05-29T12:04:23.111Z,91.40
2019-05-29T12:06:33.175Z,89.90
2019-05-29T12:09:02.007Z,90.00
2019-05-29T12:11:30.752Z,90.10
2019-05-29T12:14:00.499Z,88.70
2019-05-29T12:16:29.698Z,91.40
2019-05-29T12:18:59.893Z,90.80
2019-05-29T12:21:28.952Z,91.30
2019-05-29T12:23:58.197Z,91.90
2019-05-29T12:26:27.368Z,90.40
2019-05-29T12:29:02.039Z,90.20
2019-05-29T12:31:26.744Z,91.60
2019-05-29T12:33:58.683Z,91.80
2019-05-29T12:36:26.278Z,91.60
2019-05-29T12:38:55.238Z,90.70
2019-05-29T12:41:24.170Z,90.20
2019-05-29T12:43:53.261Z,91.20
2019-05-29T12:46:22.160Z,91.30
2019-05-29T12:48:51.010Z,91.10
2019-05-29T12:51:23.178Z,90.70
2019-05-29T12:53:51.910Z,91.00
2019-05-29T12:56:20.628Z,93.10
2019-05-29T12:58:49.475Z,94.50
2019-05-29T13:01:18.278Z,94.50
2019-05-29T13:03:46.999Z,91.50
2019-05-29T13:06:18.155Z,92.10
2019-05-29T13:08:46.756Z,90.80
2019-05-29T13:11:15.625Z,87.20
2019-05-29T13:13:44.520Z,87.20
2019-05-29T13:16:13.241Z,94.40
2019-05-29T13:18:42.205Z,93.70
2019-05-29T13:21:10.962Z,91.50
2019-05-29T13:23:45.149Z,96.50
2019-05-29T13:26:10.174Z,98.30
2019-05-29T13:28:38.931Z,91.50
2019-05-29T13:31:07.966Z,91.00
2019-05-29T13:33:36.790Z,91.70
2019-05-29T13:36:06.704Z,90.70
2019-05-29T13:38:35.835Z,90.70
2019-05-29T13:41:04.736Z,91.50
2019-05-29T13:43:33.484Z,90.50
2019-05-29T13:46:04.624Z,90.10
2019-05-29T13:48:33.686Z,91.80
2019-05-29T13:51:03.651Z,94.70
2019-05-29T13:53:32.542Z,96.60
2019-05-29T13:56:01.922Z,92.90
2019-05-29T13:58:30.856Z,91.70
2019-05-29T14:01:00.771Z,91.60
2019-05-29T14:03:29.941Z,90.40
2019-05-29T14:05:58.769Z,90.20
2019-05-29T14:08:27.562Z,89.80
2019-05-29T14:10:56.382Z,88.80
2019-05-29T14:13:26.179Z,92.60
2019-05-29T14:15:55.001Z,89.50
2019-05-29T14:18:23.836Z,87.10
2019-05-29T14:20:52.652Z,88.60
2019-05-29T14:23:21.746Z,94.60
2019-05-29T14:25:50.576Z,95.50
2019-05-29T14:28:19.461Z,92.50
2019-05-29T14:30:48.343Z,90.30
2019-05-29T14:33:17.165Z,88.40
2019-05-29T14:35:45.901Z,90.20
2019-05-29T14:38:15.269Z,89.70
2019-05-29T14:40:44.098Z,85.60
2019-05-29T14:43:15.572Z,83.60
2019-05-29T14:45:43.398Z,87.20
2019-05-29T14:48:13.242Z,95.90
2019-05-29T14:50:42.051Z,97.60
2019-05-29T14:53:11.406Z,91.90
2019-05-29T14:55:40.766Z,87.20
2019-05-29T14:58:09.828Z,92.90
2019-05-29T15:00:38.763Z,87.00
2019-05-29T15:03:07.562Z,92.30
2019-05-29T15:05:36.307Z,96.00
2019-05-29T15:08:05.821Z,90.50
2019-05-29T15:10:34.706Z,86.60
2019-05-29T15:13:04.322Z,87.80
2019-05-29T15:15:33.224Z,86.30
2019-05-29T15:18:02.086Z,83.30
2019-05-29T15:20:30.835Z,86.00
2019-05-29T15:22:59.571Z,87.10
2019-05-29T15:25:28.370Z,90.00
2019-05-29T15:27:57.122Z,92.60
2019-05-29T15:30:26.015Z,94.90
2019-05-29T15:32:54.932Z,95.90
2019-05-29T15:35:23.833Z,90.00
2019-05-29T15:37:52.566Z,94.30
2019-05-29T15:40:21.955Z,91.30
2019-05-29T15:42:50.882Z,88.50
2019-05-29T15:45:19.881Z,90.70
2019-05-29T15:47:48.832Z,85.60
2019-05-29T15:50:18.558Z,91.30
2019-05-29T15:52:47.397Z,89.80
2019-05-29T15:55:28.428Z,95.10
2019-05-29T15:57:47.384Z,96.20
2019-05-29T16:00:17.780Z,91.20
2019-05-29T16:02:48.809Z,90.30
2019-05-29T16:05:19.202Z,90.60
2019-05-29T16:07:48.325Z,92.60
2019-05-29T16:10:20.671Z,92.80
2019-05-29T16:12:49.211Z,91.10
2019-05-29T16:15:19.660Z,91.40
2019-05-29T16:17:48.695Z,90.30
2019-05-29T16:20:18.584Z,92.10
2019-05-29T16:22:47.774Z,92.70
2019-05-29T16:25:17.495Z,91.30
2019-05-29T16:27:46.338Z,93.70
2019-05-29T16:30:15.819Z,93.00
2019-05-29T16:32:45.901Z,92.30
2019-05-29T16:35:17.205Z,91.80
2019-05-29T16:37:45.934Z,92.10
2019-05-29T16:40:16.352Z,90.30
2019-05-29T16:42:45.560Z,90.70
2019-05-29T16:45:16.412Z,92.10
2019-05-29T16:47:45.288Z,95.90
2019-05-29T16:50:15.018Z,96.30
2019-05-29T16:52:43.868Z,92.40
2019-05-29T16:55:13.088Z,96.00
2019-05-29T16:57:41.928Z,96.40
2019-05-29T17:00:11.501Z,98.50
2019-05-29T17:02:40.314Z,98.90
2019-05-29T17:05:09.803Z,93.40
2019-05-29T17:07:38.616Z,91.80
2019-05-29T17:10:08.136Z,93.20
2019-05-29T17:12:36.942Z,92.80
2019-05-29T17:15:06.803Z,92.50
2019-05-29T17:17:35.736Z,94.80
2019-05-29T17:20:05.730Z,92.00
2019-05-29T17:22:35.888Z,94.80
2019-05-29T17:25:06.214Z,93.70
2019-05-29T17:27:35.255Z,94.30
2019-05-29T17:30:05.642Z,91.70
2019-05-29T17:32:34.367Z,92.80
2019-05-29T17:35:03.275Z,92.30
2019-05-29T17:37:32.237Z,95.80
2019-05-29T17:40:01.000Z,91.50
2019-05-29T17:42:29.882Z,92.80
2019-05-29T17:44:58.782Z,93.70
2019-05-29T17:47:27.792Z,94.00
2019-05-29T17:49:56.576Z,91.80
2019-05-29T17:52:26.009Z,92.20
2019-05-29T17:54:57.436Z,92.80
2019-05-29T17:57:26.276Z,92.80
2019-05-29T17:59:55.725Z,93.10
2019-05-29T18:02:24.712Z,93.00
2019-05-29T18:04:53.517Z,92.70
2019-05-29T18:07:22.707Z,92.60
2019-05-29T18:09:51.621Z,93.60
2019-05-29T18:12:20.962Z,93.30
2019-05-29T18:14:50.022Z,93.70
2019-05-29T18:17:19.670Z,93.80
2019-05-29T18:19:48.451Z,94.50
2019-05-29T18:22:17.577Z,94.70
2019-05-29T18:24:46.289Z,95.30
2019-05-29T18:27:15.002Z,95.30
2019-05-29T18:29:43.842Z,95.90
2019-05-29T18:32:12.639Z,96.30
2019-05-29T18:34:41.362Z,96.80
2019-05-29T18:37:10.097Z,98.80
2019-05-29T18:39:39.910Z,99.60
2019-05-29T18:42:08.789Z,99.90
2019-05-29T18:44:37.586Z,99.90
2019-05-29T18:47:06.488Z,99.90
2019-05-29T18:49:35.270Z,99.90
2019-05-29T18:52:04.168Z,99.90
2019-05-29T18:54:33.182Z,99.90
2019-05-29T18:57:14.787Z,99.90
2019-05-29T18:59:32.476Z,99.90
2019-05-29T19:02:01.560Z,99.90
2019-05-29T19:04:31.747Z,99.90
2019-05-29T19:07:00.891Z,99.90
2019-05-29T19:09:29.817Z,99.90
2019-05-29T19:11:58.615Z,99.90
2019-05-29T19:14:27.988Z,99.90
2019-05-29T19:16:56.752Z,99.90
2019-05-29T19:19:26.201Z,99.90
2019-05-29T19:21:55.053Z,99.90
2019-05-29T19:24:24.554Z,99.90
2019-05-29T19:26:53.471Z,99.90
2019-05-29T19:29:22.942Z,99.90
2019-05-29T19:31:51.813Z,99.90
2019-05-29T19:34:20.619Z,99.90
2019-05-29T19:36:49.362Z,99.90
2019-05-29T19:39:18.121Z,99.90
2019-05-29T19:41:46.938Z,99.90
2019-05-29T19:44:16.708Z,99.90
2019-05-29T19:46:53.611Z,99.90
2019-05-29T19:49:16.040Z,99.90
2019-05-29T19:51:44.867Z,99.90
2019-05-29T19:54:13.667Z,99.90
2019-05-29T19:56:42.480Z,99.90
2019-05-29T19:59:11.222Z,99.90
2019-05-29T20:01:40.686Z,99.90
2019-05-29T20:04:09.510Z,99.90
2019-05-29T20:06:38.304Z,99.90
2019-05-29T20:09:07.643Z,99.90
2019-05-29T20:11:37.785Z,99.90
2019-05-29T20:14:07.711Z,99.90
2019-05-29T20:16:39.126Z,99.90
2019-05-29T20:19:08.118Z,99.90
2019-05-29T20:21:36.971Z,99.90
2019-05-29T20:24:05.847Z,99.90
2019-05-29T20:26:35.220Z,99.90
2019-05-29T20:29:04.166Z,99.90
2019-05-29T20:31:32.900Z,99.90
2019-05-29T20:34:01.721Z,99.90
2019-05-29T20:36:34.463Z,99.90
2019-05-29T20:39:02.079Z,99.90
2019-05-29T20:41:33.813Z,99.90
2019-05-29T20:44:02.344Z,99.90
2019-05-29T20:46:32.490Z,99.90
2019-05-29T20:49:02.618Z,99.90
2019-05-29T20:51:32.758Z,99.90
2019-05-29T20:54:02.937Z,99.90
2019-05-29T20:56:31.870Z,99.90
2019-05-29T20:59:00.743Z,99.90
2019-05-29T21:01:29.574Z,99.90
2019-05-29T21:03:58.391Z,99.90
2019-05-29T21:06:27.163Z,99.90
2019-05-29T21:08:55.979Z,99.90
2019-05-29T21:11:24.686Z,99.90
2019-05-29T21:13:53.407Z,99.90
2019-05-29T21:16:22.210Z,99.90
2019-05-29T21:18:50.957Z,99.90
2019-05-29T21:21:19.725Z,99.90
2019-05-29T21:23:48.674Z,99.90
2019-05-29T21:26:17.413Z,99.90
2019-05-29T21:28:50.399Z,99.90
2019-05-29T21:31:17.091Z,99.90
2019-05-29T21:33:49.044Z,99.90
2019-05-29T21:36:16.287Z,99.90
2019-05-29T21:38:46.388Z,99.90
2019-05-29T21:41:15.198Z,99.90
2019-05-29T21:43:44.796Z,99.90
2019-05-29T21:46:13.578Z,99.90
2019-05-29T21:48:43.376Z,99.90
2019-05-29T21:51:12.132Z,99.90
2019-05-29T21:53:41.327Z,99.90
2019-05-29T21:56:10.058Z,99.90
2019-05-29T21:58:40.825Z,99.90
2019-05-29T22:01:09.402Z,99.90
2019-05-29T22:03:38.372Z,99.90
2019-05-29T22:06:07.236Z,99.90
2019-05-29T22:08:36.036Z,99.90
2019-05-29T22:11:04.938Z,99.90
2019-05-29T22:13:33.683Z,99.90
2019-05-29T22:16:02.703Z,99.90
2019-05-29T22:18:31.439Z,99.90
2019-05-29T22:21:01.569Z,99.90
2019-05-29T22:23:30.546Z,99.90
2019-05-29T22:25:59.498Z,99.90
2019-05-29T22:28:28.215Z,99.90
2019-05-29T22:30:57.351Z,99.90
2019-05-29T22:33:26.150Z,99.90
2019-05-29T22:35:55.716Z,99.90
2019-05-29T22:38:24.514Z,99.90
2019-05-29T22:40:53.825Z,99.90
2019-05-29T22:43:23.002Z,99.90
2019-05-29T22:45:51.822Z,99.90
2019-05-29T22:48:20.569Z,99.90
2019-05-29T22:50:49.355Z,99.90
2019-05-29T22:53:18.087Z,99.90
2019-05-29T22:55:46.823Z,99.90
2019-05-29T22:58:15.666Z,99.90
2019-05-29T23:00:44.559Z,99.90
2019-05-29T23:03:13.285Z,99.90
2019-05-29T23:05:42.026Z,99.90
2019-05-29T23:08:10.735Z,99.90
2019-05-29T23:10:39.637Z,99.90
2019-05-29T23:13:08.488Z,99.90
2019-05-29T23:15:37.399Z,99.90
2019-05-29T23:18:06.245Z,99.90
2019-05-29T23:20:35.066Z,99.90
2019-05-29T23:23:03.967Z,99.90
2019-05-29T23:25:32.827Z,99.90
2019-05-29T23:28:01.602Z,99.90
2019-05-29T23:30:30.947Z,99.90
2019-05-29T23:33:00.781Z,99.90
2019-05-29T23:35:29.860Z,99.90
2019-05-29T23:37:59.160Z,99.90
2019-05-29T23:40:27.911Z,99.90
2019-05-29T23:42:57.341Z,99.90
2019-05-29T23:45:27.183Z,99.90
2019-05-29T23:47:55.940Z,99.90
2019-05-29T23:50:24.769Z,99.90
2019-05-29T23:52:53.624Z,99.90
2019-05-29T23:55:22.501Z,99.90
2019-05-29T23:57:51.266Z,99.90
